Time;durP1;ratioP1;P1;durP2;ratioP2;P2;SDS_P1;SDS_P2;PMS_P1;PMS_P2;Temp;Humidity;BMP_temperature;BMP_pressure;BME280_temperature;BME280_humidity;BME280_pressure;Samples;Min_cycle;Max_cycle;Signal;HPM_P1;HPM_P2
2024/01/31 00:01:28;;;;;;;14.52;9.68;;;;;;;-2.16;48.43;95531.94;5032509;28;20560;-72
2024/01/31 00:03:53;;;;;;;18.83;10.48;;;;;;;-2.07;48.49;95535.97;5029836;28;20025;-73
2024/01/31 00:06:19;;;;;;;19.02;10.10;;;;;;;-2.13;48.33;95534.13;5031993;28;20025;-72
2024/01/31 00:08:44;;;;;;;14.52;9.32;;;;;;;-2.16;48.31;95521.50;5034348;28;20049;-72
2024/01/31 00:11:10;;;;;;;10.60;6.60;;;;;;;-2.11;48.18;95537.38;5030226;28;20615;-72
2024/01/31 00:13:35;;;;;;;13.95;7.63;;;;;;;-2.26;47.85;95519.25;5032639;28;20749;-73
2024/01/31 00:16:01;;;;;;;7.57;4.75;;;;;;;-2.18;47.89;95546.94;5029804;28;20529;-72
2024/01/31 00:18:27;;;;;;;7.03;4.78;;;;;;;-2.20;47.79;95542.94;5034842;28;20031;-71
2024/01/31 00:20:52;;;;;;;8.07;5.13;;;;;;;-2.36;47.99;95536.22;5030449;28;20033;-71
2024/01/31 00:23:19;;;;;;;11.10;6.60;;;;;;;-2.47;48.26;95536.72;5028834;28;20044;-71
2024/01/31 00:25:45;;;;;;;10.93;7.20;;;;;;;-2.64;48.33;95511.97;5031563;28;20442;-73
2024/01/31 00:28:12;;;;;;;10.90;7.47;;;;;;;-2.36;48.42;95538.81;5031732;28;20041;-72
2024/01/31 00:30:37;;;;;;;12.60;8.55;;;;;;;-2.34;48.62;95531.63;5033126;28;20474;-71
2024/01/31 00:33:03;;;;;;;10.20;7.22;;;;;;;-2.38;48.62;95519.94;5031750;28;20025;-71
2024/01/31 00:35:28;;;;;;;10.38;7.40;;;;;;;-2.35;48.53;95530.00;5014747;28;20044;-71
2024/01/31 00:37:55;;;;;;;9.40;6.15;;;;;;;-2.31;48.51;95531.22;5021602;28;20040;-72
2024/01/31 00:40:20;;;;;;;8.27;5.32;;;;;;;-2.30;48.28;95531.03;5028173;28;20040;-73
2024/01/31 00:42:45;;;;;;;9.57;5.97;;;;;;;-2.28;47.99;95528.22;5030288;28;20049;-70
2024/01/31 00:45:13;;;;;;;12.27;6.65;;;;;;;-2.25;48.11;95525.25;5028408;28;20017;-72
2024/01/31 00:47:43;;;;;;;10.60;6.68;;;;;;;-2.32;47.95;95527.00;5032621;28;20528;-73
2024/01/31 00:50:12;;;;;;;15.77;9.05;;;;;;;-2.36;48.15;95513.56;5031439;28;20053;-72
2024/01/31 00:52:38;;;;;;;11.15;7.88;;;;;;;-2.33;48.03;95518.38;5027081;28;20079;-72
2024/01/31 00:55:04;;;;;;;16.30;7.32;;;;;;;-2.49;48.23;95486.63;5031816;28;20036;-72
2024/01/31 00:57:29;;;;;;;10.10;6.82;;;;;;;-2.20;47.93;95512.47;5033521;28;20860;-72
2024/01/31 00:59:55;;;;;;;11.23;7.43;;;;;;;-2.34;47.83;95508.16;5012732;28;20502;-71
2024/01/31 01:02:20;;;;;;;18.35;8.93;;;;;;;-2.46;47.67;95473.22;5014876;28;20461;-73
2024/01/31 01:04:46;;;;;;;10.95;7.88;;;;;;;-2.22;47.56;95506.63;5023110;28;20200;-73
2024/01/31 01:07:12;;;;;;;19.63;7.82;;;;;;;-2.56;47.05;95460.53;5033484;28;20183;-73
2024/01/31 01:09:38;;;;;;;6.93;5.00;;;;;;;-2.31;47.05;95513.00;5033983;28;20517;-72
2024/01/31 01:12:03;;;;;;;13.70;5.80;;;;;;;-2.32;47.27;95513.97;5034321;28;20061;-73
2024/01/31 01:14:29;;;;;;;15.38;8.18;;;;;;;-2.51;47.81;95507.66;5034835;28;20052;-73
2024/01/31 01:16:54;;;;;;;16.75;8.93;;;;;;;-2.65;48.32;95515.56;5034112;28;20105;-73
2024/01/31 01:19:20;;;;;;;18.27;9.73;;;;;;;-2.48;48.50;95509.88;5035945;28;20041;-73
2024/01/31 01:21:45;;;;;;;20.65;11.15;;;;;;;-2.42;48.49;95514.31;5035879;28;20082;-72
2024/01/31 01:24:11;;;;;;;18.00;10.98;;;;;;;-2.64;48.84;95511.97;5026453;28;20386;-72
2024/01/31 01:26:40;;;;;;;21.40;11.70;;;;;;;-2.53;49.05;95521.84;5037930;28;20493;-73
2024/01/31 01:29:07;;;;;;;19.92;11.85;;;;;;;-2.57;48.71;95495.38;5020286;28;20053;-73
2024/01/31 01:31:32;;;;;;;19.10;11.75;;;;;;;-2.40;48.48;95506.31;5015703;28;20040;-72
2024/01/31 01:33:59;;;;;;;14.90;10.23;;;;;;;-2.66;48.95;95506.13;5017323;28;20033;-72
2024/01/31 01:36:25;;;;;;;18.88;9.43;;;;;;;-2.89;49.32;95511.59;5031875;28;20082;-73
2024/01/31 01:38:50;;;;;;;15.00;9.10;;;;;;;-2.84;49.48;95504.81;5034640;28;20040;-73
2024/01/31 01:41:16;;;;;;;18.20;10.13;;;;;;;-2.92;49.58;95502.34;5034984;28;20559;-73
2024/01/31 01:43:42;;;;;;;17.38;10.35;;;;;;;-2.79;49.66;95496.44;5034624;28;20397;-72
2024/01/31 01:46:21;;;;;;;16.40;10.20;;;;;;;-2.71;49.52;95504.91;5035398;28;20049;-73
2024/01/31 01:48:49;;;;;;;15.77;9.50;;;;;;;-2.94;49.37;95473.09;5033642;28;20025;-72
2024/01/31 01:51:21;;;;;;;19.65;10.00;;;;;;;-2.73;49.29;95501.69;5014004;28;20029;-72
2024/01/31 01:53:47;;;;;;;13.95;9.98;;;;;;;-2.64;49.23;95499.75;5032386;28;20078;-74
2024/01/31 01:56:18;;;;;;;18.52;10.35;;;;;;;-2.66;48.84;95500.94;5033091;28;20045;-73
2024/01/31 01:58:45;;;;;;;13.05;8.32;;;;;;;-2.70;49.08;95493.50;5035205;28;20053;-72
2024/01/31 02:01:12;;;;;;;14.88;8.98;;;;;;;-2.72;49.06;95492.88;5033328;28;20041;-73
2024/01/31 02:03:38;;;;;;;17.20;10.18;;;;;;;-2.78;49.06;95491.03;5032518;28;20129;-72
2024/01/31 02:06:03;;;;;;;16.58;11.48;;;;;;;-2.72;48.99;95487.66;5035410;28;20160;-72
2024/01/31 02:08:29;;;;;;;16.65;10.75;;;;;;;-2.65;49.01;95486.91;5034823;28;20833;-73
2024/01/31 02:10:56;;;;;;;18.48;12.85;;;;;;;-2.69;49.18;95483.88;5033439;28;20037;-72
2024/01/31 02:13:22;;;;;;;21.60;13.40;;;;;;;-2.81;49.60;95478.38;5033459;28;20562;-72
2024/01/31 02:15:54;;;;;;;24.60;15.02;;;;;;;-2.92;49.60;95476.28;5033970;28;20033;-72
2024/01/31 02:18:27;;;;;;;24.08;15.65;;;;;;;-2.85;49.89;95484.97;5034622;28;20040;-72
2024/01/31 02:20:53;;;;;;;26.20;16.13;;;;;;;-2.95;50.15;95484.50;5033360;28;20051;-71
2024/01/31 02:23:20;;;;;;;28.42;17.13;;;;;;;-2.85;49.93;95474.56;5032178;28;20594;-70
2024/01/31 02:25:45;;;;;;;28.70;17.05;;;;;;;-2.79;50.03;95480.81;5035584;28;20041;-70
2024/01/31 02:28:11;;;;;;;29.17;18.88;;;;;;;-2.88;49.88;95456.72;5032745;28;20073;-70
2024/01/31 02:30:36;;;;;;;25.30;16.40;;;;;;;-2.87;50.04;95478.34;5034957;28;20052;-70
2024/01/31 02:33:02;;;;;;;25.55;17.05;;;;;;;-2.84;50.23;95476.19;5033182;28;20024;-72
2024/01/31 02:35:32;;;;;;;28.23;16.90;;;;;;;-2.89;50.25;95464.72;5027459;28;20774;-70
2024/01/31 02:37:57;;;;;;;28.52;15.00;;;;;;;-2.93;50.27;95468.69;5031814;28;20053;-73
2024/01/31 02:40:23;;;;;;;26.55;15.05;;;;;;;-3.17;50.31;95442.06;5032020;28;20651;-71
2024/01/31 02:42:49;;;;;;;25.80;14.57;;;;;;;-3.00;50.35;95468.63;5033654;28;20634;-71
2024/01/31 02:45:14;;;;;;;19.65;13.13;;;;;;;-3.02;49.97;95470.59;5037199;28;20135;-71
2024/01/31 02:47:40;;;;;;;19.73;12.40;;;;;;;-3.08;49.88;95452.34;5034340;28;20032;-71
2024/01/31 02:50:05;;;;;;;22.02;13.10;;;;;;;-3.12;49.77;95457.09;5030137;28;20033;-71
2024/01/31 02:52:31;;;;;;;23.92;14.07;;;;;;;-3.17;50.04;95467.31;5031145;28;20064;-72
2024/01/31 02:54:58;;;;;;;27.13;15.82;;;;;;;-3.29;50.31;95445.38;5032692;28;20710;-71
2024/01/31 02:57:27;;;;;;;26.20;16.60;;;;;;;-3.26;50.42;95453.59;5035510;28;20108;-72
2024/01/31 02:59:52;;;;;;;25.33;14.73;;;;;;;-3.28;50.81;95468.59;5035637;28;20042;-72
2024/01/31 03:02:18;;;;;;;30.30;17.55;;;;;;;-3.35;50.72;95472.13;5034044;28;20041;-73
2024/01/31 03:04:44;;;;;;;27.20;16.52;;;;;;;-3.30;50.77;95470.59;5029212;28;20052;-71
2024/01/31 03:07:10;;;;;;;25.35;16.02;;;;;;;-3.25;50.69;95468.22;5032627;28;20094;-71
2024/01/31 03:09:36;;;;;;;28.58;16.60;;;;;;;-3.15;50.49;95470.50;5032982;28;20029;-71
2024/01/31 03:12:04;;;;;;;29.40;16.98;;;;;;;-3.18;50.58;95468.28;5034525;28;20045;-70
2024/01/31 03:14:33;;;;;;;25.88;16.75;;;;;;;-3.32;50.45;95469.19;5033747;28;20382;-71
2024/01/31 03:16:59;;;;;;;26.17;15.30;;;;;;;-3.23;50.38;95468.06;5033541;28;20461;-75
2024/01/31 03:19:27;;;;;;;31.13;16.83;;;;;;;-3.30;50.86;95461.97;5022859;28;20047;-72
2024/01/31 03:21:53;;;;;;;32.05;16.60;;;;;;;-3.32;50.43;95458.75;5012946;28;20037;-72
2024/01/31 03:24:18;;;;;;;28.17;17.77;;;;;;;-3.31;50.65;95455.97;5011033;28;20711;-73
2024/01/31 03:26:43;;;;;;;29.95;17.85;;;;;;;-3.25;50.65;95454.41;5009750;28;20482;-73
2024/01/31 03:29:09;;;;;;;28.85;17.98;;;;;;;-3.25;50.63;95450.00;5021867;28;20141;-72
2024/01/31 03:31:34;;;;;;;29.02;18.95;;;;;;;-3.16;50.57;95448.88;5034809;28;20037;-72
2024/01/31 03:34:00;;;;;;;35.42;19.50;;;;;;;-3.23;50.54;95431.63;5030460;28;20048;-71
2024/01/31 03:36:26;;;;;;;32.90;18.15;;;;;;;-3.13;50.47;95442.50;5033682;28;20032;-71
2024/01/31 03:38:54;;;;;;;29.17;17.27;;;;;;;-3.21;50.40;95446.03;5032233;28;20048;-72
2024/01/31 03:41:19;;;;;;;29.10;17.23;;;;;;;-3.23;50.28;95450.63;5032842;28;20481;-71
2024/01/31 03:43:45;;;;;;;24.40;14.38;;;;;;;-3.27;50.45;95456.41;5032524;28;20043;-71
2024/01/31 03:46:12;;;;;;;21.58;14.00;;;;;;;-3.45;50.38;95441.22;5033979;28;20079;-71
2024/01/31 03:48:37;;;;;;;24.50;14.90;;;;;;;-3.37;50.39;95435.91;5034366;28;20364;-70
2024/01/31 03:51:03;;;;;;;22.70;13.10;;;;;;;-3.32;50.41;95423.16;5029859;28;20486;-70
2024/01/31 03:53:28;;;;;;;24.38;14.55;;;;;;;-3.32;50.57;95456.97;5034527;28;20045;-72
2024/01/31 03:55:54;;;;;;;23.35;14.90;;;;;;;-3.45;50.82;95443.03;5032879;28;20045;-73
2024/01/31 03:58:19;;;;;;;23.10;15.25;;;;;;;-3.39;50.77;95460.50;5030246;28;20586;-73
2024/01/31 04:00:45;;;;;;;28.23;15.23;;;;;;;-3.33;50.80;95467.56;5032488;28;20037;-71
2024/01/31 04:03:11;;;;;;;28.80;14.38;;;;;;;-3.56;51.11;95431.31;5034892;28;20091;-71
2024/01/31 04:05:36;;;;;;;20.27;13.07;;;;;;;-3.31;50.75;95466.38;5026967;28;20039;-71
2024/01/31 04:08:02;;;;;;;20.45;12.07;;;;;;;-3.26;50.78;95466.63;5027565;28;20116;-73
2024/01/31 04:10:28;;;;;;;20.65;12.65;;;;;;;-3.40;50.50;95444.06;5035007;28;20044;-71
2024/01/31 04:12:53;;;;;;;22.92;12.85;;;;;;;-3.25;50.87;95475.22;5031325;28;20044;-71
2024/01/31 04:15:19;;;;;;;19.38;12.13;;;;;;;-3.29;50.75;95471.41;5034450;28;20033;-71
2024/01/31 04:17:44;;;;;;;23.48;12.07;;;;;;;-3.29;50.71;95471.41;5033422;28;20098;-71
2024/01/31 04:20:11;;;;;;;22.80;13.38;;;;;;;-3.50;50.51;95437.56;5030502;28;20620;-70
2024/01/31 04:22:40;;;;;;;20.77;13.50;;;;;;;-3.45;50.99;95474.22;5031877;28;20075;-71
2024/01/31 04:25:06;;;;;;;18.75;13.38;;;;;;;-3.53;50.81;95475.19;5034142;28;20049;-71
2024/01/31 04:27:31;;;;;;;26.48;15.55;;;;;;;-3.56;51.32;95473.72;5031357;28;20037;-71
2024/01/31 04:29:58;;;;;;;22.98;15.50;;;;;;;-3.71;51.12;95436.56;5031667;28;20052;-73
2024/01/31 04:32:24;;;;;;;23.55;14.70;;;;;;;-3.52;51.31;95476.78;5032139;28;20075;-73
2024/01/31 04:34:51;;;;;;;19.40;12.05;;;;;;;-3.50;51.24;95482.59;5032853;28;20132;-73
2024/01/31 04:37:16;;;;;;;18.52;10.30;;;;;;;-3.54;50.85;95476.16;5026418;28;20099;-73
2024/01/31 04:39:42;;;;;;;16.25;9.38;;;;;;;-3.54;50.82;95476.16;5034630;28;20485;-72
2024/01/31 04:42:08;;;;;;;11.73;8.50;;;;;;;-3.54;50.62;95476.16;5031673;28;20554;-71
2024/01/31 04:44:34;;;;;;;15.95;8.27;;;;;;;-3.47;50.36;95471.03;5031604;28;20045;-71
2024/01/31 04:46:59;;;;;;;20.88;12.48;;;;;;;-3.49;50.63;95475.59;5031668;28;20079;-71
2024/01/31 04:49:25;;;;;;;23.80;12.20;;;;;;;-3.50;50.44;95476.59;5035381;28;20112;-71
2024/01/31 04:51:51;;;;;;;23.20;12.45;;;;;;;-4.00;50.64;95402.91;5029633;28;20027;-71
2024/01/31 04:54:16;;;;;;;22.13;12.38;;;;;;;-3.42;50.55;95468.69;5031676;28;20029;-71
2024/01/31 04:56:42;;;;;;;18.92;11.27;;;;;;;-3.44;50.28;95470.66;5031203;28;20593;-71
2024/01/31 04:59:08;;;;;;;15.45;9.40;;;;;;;-3.53;49.64;95436.16;5030071;28;20299;-71
2024/01/31 05:01:34;;;;;;;12.10;7.65;;;;;;;-3.46;49.40;95457.03;5030383;28;20076;-71
2024/01/31 05:03:59;;;;;;;11.35;6.43;;;;;;;-3.49;49.09;95442.59;5032077;28;20041;-71
2024/01/31 05:06:25;;;;;;;11.00;7.38;;;;;;;-3.46;49.17;95452.63;5032219;28;20374;-71
2024/01/31 05:08:51;;;;;;;9.93;7.45;;;;;;;-3.40;48.92;95457.09;5005707;28;20145;-71
2024/01/31 05:11:16;;;;;;;12.73;7.95;;;;;;;-3.52;49.43;95457.78;5023110;28;20769;-71
2024/01/31 05:13:43;;;;;;;15.93;9.93;;;;;;;-3.62;49.79;95448.50;5032226;28;20625;-71
2024/01/31 05:16:09;;;;;;;18.00;9.45;;;;;;;-3.93;50.31;95424.56;5032532;28;20044;-70
2024/01/31 05:18:35;;;;;;;21.08;12.45;;;;;;;-3.74;50.29;95434.34;5031976;28;20028;-71
2024/01/31 05:21:01;;;;;;;20.20;12.75;;;;;;;-3.68;50.26;95459.63;5028449;28;20092;-71
2024/01/31 05:23:27;;;;;;;24.30;12.10;;;;;;;-3.71;50.80;95464.41;5010406;28;20081;-71
2024/01/31 05:25:53;;;;;;;22.17;13.05;;;;;;;-3.66;50.64;95472.44;5018969;28;20473;-71
2024/01/31 05:28:18;;;;;;;24.90;16.20;;;;;;;-3.68;50.80;95469.22;5029994;28;20041;-71
2024/01/31 05:30:44;;;;;;;25.92;16.50;;;;;;;-3.82;50.93;95480.47;5029463;28;20410;-71
2024/01/31 05:33:10;;;;;;;25.08;15.88;;;;;;;-3.88;51.23;95474.19;5033191;28;20104;-70
2024/01/31 05:35:36;;;;;;;25.20;15.43;;;;;;;-3.90;51.49;95476.16;5030578;28;20095;-71
2024/01/31 05:38:03;;;;;;;27.55;15.25;;;;;;;-4.04;51.40;95458.81;5029565;28;20044;-71
2024/01/31 05:40:29;;;;;;;26.98;16.95;;;;;;;-3.90;51.77;95476.16;5016736;28;20321;-71
2024/01/31 05:42:55;;;;;;;22.90;14.82;;;;;;;-4.16;51.91;95471.47;5007875;28;20029;-71
2024/01/31 05:45:20;;;;;;;25.00;13.88;;;;;;;-3.92;51.92;95492.94;5033535;28;20033;-72
2024/01/31 05:47:46;;;;;;;22.98;14.65;;;;;;;-4.00;51.43;95491.28;5030730;28;20105;-73
2024/01/31 05:50:11;;;;;;;28.90;15.32;;;;;;;-4.03;51.74;95499.41;5033271;28;20082;-72
2024/01/31 05:52:37;;;;;;;30.58;16.50;;;;;;;-4.03;51.52;95499.41;5032781;28;20048;-72
2024/01/31 05:55:02;;;;;;;27.48;16.38;;;;;;;-4.07;51.31;95474.78;5035390;28;20044;-73
2024/01/31 05:57:28;;;;;;;26.10;15.35;;;;;;;-3.95;50.92;95503.72;5030705;28;20037;-73
2024/01/31 05:59:53;;;;;;;27.45;16.13;;;;;;;-3.81;50.96;95505.47;5033204;28;20067;-72
2024/01/31 06:02:19;;;;;;;32.83;18.08;;;;;;;-3.93;51.24;95502.53;5035065;28;20044;-73
2024/01/31 06:04:44;;;;;;;37.47;18.52;;;;;;;-3.87;51.19;95504.41;5034360;28;20330;-73
2024/01/31 06:07:12;;;;;;;30.55;19.85;;;;;;;-3.95;51.62;95501.13;5033756;28;20107;-72
2024/01/31 06:09:38;;;;;;;27.52;18.45;;;;;;;-3.92;51.30;95501.56;5033949;28;20572;-71
2024/01/31 06:12:04;;;;;;;29.33;18.13;;;;;;;-3.87;51.67;95509.63;5036327;28;20033;-72
2024/01/31 06:14:31;;;;;;;38.55;19.13;;;;;;;-3.83;51.23;95507.44;5018670;28;20490;-72
2024/01/31 06:16:57;;;;;;;33.97;19.13;;;;;;;-3.86;51.83;95476.63;5021390;28;20555;-72
2024/01/31 06:19:22;;;;;;;35.22;20.58;;;;;;;-3.69;51.80;95493.59;5031398;28;20041;-72
2024/01/31 06:21:48;;;;;;;37.88;19.83;;;;;;;-3.59;51.49;95486.31;5034311;28;23224;-72
2024/01/31 06:24:13;;;;;;;44.67;24.75;;;;;;;-3.51;51.66;95488.78;5034883;28;20037;-71
2024/01/31 06:26:42;;;;;;;57.58;30.10;;;;;;;-3.77;51.52;95439.13;5033177;28;20091;-71
2024/01/31 06:29:08;;;;;;;56.42;31.13;;;;;;;-3.54;51.85;95481.34;5034071;28;20049;-73
2024/01/31 06:31:40;;;;;;;50.92;28.17;;;;;;;-3.41;51.93;95491.88;5033999;28;20555;-74
2024/01/31 06:34:06;;;;;;;38.88;24.67;;;;;;;-3.47;51.42;95487.44;5033137;28;20072;-72
2024/01/31 06:36:31;;;;;;;43.85;24.85;;;;;;;-3.34;51.37;95502.38;5035942;28;20040;-71
2024/01/31 06:38:59;;;;;;;45.38;24.73;;;;;;;-3.27;51.48;95498.81;5032918;28;20452;-72
2024/01/31 06:41:25;;;;;;;37.22;25.08;;;;;;;-3.21;51.45;95503.28;5034012;28;20045;-72
2024/01/31 06:43:50;;;;;;;42.53;25.80;;;;;;;-3.18;51.49;95502.13;5031855;28;20044;-72
2024/01/31 06:46:16;;;;;;;39.53;24.73;;;;;;;-3.26;52.15;95507.44;5034304;28;20045;-72
2024/01/31 06:48:41;;;;;;;51.42;29.25;;;;;;;-3.33;52.73;95506.59;5030908;28;20025;-71
2024/01/31 06:51:07;;;;;;;54.20;28.83;;;;;;;-3.48;53.36;95500.63;5030398;28;20094;-72
2024/01/31 06:53:33;;;;;;;55.30;31.10;;;;;;;-3.58;53.71;95480.94;5034147;28;20045;-72
2024/01/31 06:56:00;;;;;;;54.30;32.53;;;;;;;-3.41;53.61;95501.47;5034630;28;20515;-72
2024/01/31 06:58:25;;;;;;;50.42;30.23;;;;;;;-3.33;53.32;95510.00;5031544;28;20112;-73
2024/01/31 07:00:54;;;;;;;51.38;29.42;;;;;;;-3.38;53.91;95501.94;5032612;28;20025;-73
2024/01/31 07:03:20;;;;;;;50.00;29.50;;;;;;;-3.57;54.41;95500.75;5034056;28;20037;-72
2024/01/31 07:05:46;;;;;;;46.55;27.42;;;;;;;-3.31;54.09;95501.97;5011603;28;20147;-71
2024/01/31 07:08:11;;;;;;;45.28;26.55;;;;;;;-3.14;53.60;95500.75;5007757;28;20136;-73
2024/01/31 07:10:36;;;;;;;54.00;28.38;;;;;;;-3.14;53.63;95498.16;5017749;28;20087;-73
2024/01/31 07:13:05;;;;;;;51.20;27.60;;;;;;;-3.26;54.00;95497.84;5033864;28;20041;-73
2024/01/31 07:15:30;;;;;;;52.95;29.70;;;;;;;-3.47;54.71;95492.66;5033209;28;20489;-73
2024/01/31 07:17:56;;;;;;;54.15;29.92;;;;;;;-3.27;54.24;95498.03;5033389;28;20118;-72
2024/01/31 07:20:22;;;;;;;46.58;29.45;;;;;;;-3.97;55.82;95496.09;5029267;28;20101;-73
2024/01/31 07:22:47;;;;;;;47.17;30.33;;;;;;;-3.78;56.22;95499.91;5029993;28;20577;-73
2024/01/31 07:25:15;;;;;;;56.28;31.45;;;;;;;-3.51;55.24;95490.59;5034641;28;20102;-72
2024/01/31 07:27:41;;;;;;;55.75;31.67;;;;;;;-3.82;56.76;95498.66;5029020;28;20037;-71
2024/01/31 07:30:10;;;;;;;51.83;32.17;;;;;;;-3.30;55.35;95503.59;5035305;28;20131;-71
2024/01/31 07:32:36;;;;;;;54.03;31.20;;;;;;;-3.51;55.26;95498.41;5033211;28;20047;-71
2024/01/31 07:35:02;;;;;;;52.05;31.67;;;;;;;-3.57;55.56;95476.53;5033284;28;20118;-73
2024/01/31 07:37:27;;;;;;;51.67;31.85;;;;;;;-2.98;54.64;95497.91;5033724;28;20136;-72
2024/01/31 07:39:56;;;;;;;53.13;31.80;;;;;;;-2.80;54.26;95490.41;5035192;28;20652;-73
2024/01/31 07:42:21;;;;;;;55.20;34.80;;;;;;;-3.16;54.96;95494.91;5036939;28;20428;-73
2024/01/31 07:44:47;;;;;;;54.65;31.55;;;;;;;-2.62;53.25;95496.94;5029345;28;20045;-73
2024/01/31 07:47:13;;;;;;;53.20;32.35;;;;;;;-2.48;52.98;95489.03;5015716;28;20077;-74
2024/01/31 07:49:41;;;;;;;61.47;32.83;;;;;;;-2.76;53.76;95504.66;5016517;28;20136;-73
2024/01/31 07:52:06;;;;;;;54.38;34.70;;;;;;;-2.66;53.76;95500.94;5032726;28;20068;-73
2024/01/31 07:54:32;;;;;;;59.15;35.88;;;;;;;-2.90;54.34;95495.16;5036406;28;20187;-73
2024/01/31 07:56:57;;;;;;;54.05;34.95;;;;;;;-2.74;54.75;95494.88;5036918;28;20032;-73
2024/01/31 07:59:23;;;;;;;56.40;34.47;;;;;;;-2.67;54.13;95489.69;5016025;28;20057;-73
2024/01/31 08:01:48;;;;;;;53.22;35.28;;;;;;;-2.50;54.32;95483.22;5023243;28;20473;-73
2024/01/31 08:04:14;;;;;;;62.50;38.00;;;;;;;-2.27;53.36;95477.72;5033592;28;20041;-73
2024/01/31 08:06:42;;;;;;;65.28;37.33;;;;;;;-2.53;53.46;95485.38;5036123;28;20045;-73
2024/01/31 08:09:09;;;;;;;61.78;39.55;;;;;;;-2.60;54.32;95489.75;5033628;28;20072;-73
2024/01/31 08:11:44;;;;;;;58.17;37.85;;;;;;;-2.59;53.70;95470.53;5033060;28;20167;-73
2024/01/31 08:14:09;;;;;;;58.55;36.58;;;;;;;-2.19;53.54;95474.94;5035527;28;20144;-73
2024/01/31 08:16:35;;;;;;;58.30;35.13;;;;;;;-1.87;52.85;95476.09;5022148;28;20405;-73
2024/01/31 08:19:01;;;;;;;64.22;36.78;;;;;;;-1.61;52.32;95467.56;5013447;28;20384;-73
2024/01/31 08:21:27;;;;;;;54.53;34.53;;;;;;;-1.87;52.29;95473.50;5036215;28;20413;-73
2024/01/31 08:23:52;;;;;;;57.17;34.83;;;;;;;-1.99;52.73;95473.22;5034183;28;20048;-73
2024/01/31 08:26:18;;;;;;;62.17;33.97;;;;;;;-1.79;52.72;95464.66;5029054;28;20047;-73
2024/01/31 08:28:44;;;;;;;58.60;36.28;;;;;;;-2.16;53.22;95469.34;5035733;28;20099;-73
2024/01/31 08:31:09;;;;;;;64.80;34.67;;;;;;;-2.04;52.80;95459.97;5034766;28;20783;-73
2024/01/31 08:33:35;;;;;;;49.38;32.28;;;;;;;-2.07;52.50;95476.00;5033669;28;20048;-73
2024/01/31 08:36:00;;;;;;;50.70;32.80;;;;;;;-1.98;52.58;95464.41;5014156;28;20128;-73
2024/01/31 08:38:26;;;;;;;56.15;32.47;;;;;;;-1.61;51.80;95467.56;5027481;28;20116;-72
2024/01/31 08:40:53;;;;;;;48.10;31.00;;;;;;;-1.24;51.04;95469.63;5033723;28;20055;-73
2024/01/31 08:43:18;;;;;;;52.45;31.38;;;;;;;-1.31;51.07;95465.41;5029754;28;20067;-73
2024/01/31 08:45:44;;;;;;;56.88;32.30;;;;;;;-1.47;50.95;95458.75;5034428;28;20043;-73
2024/01/31 08:48:10;;;;;;;51.58;31.42;;;;;;;-1.31;50.80;95463.56;5010782;28;20482;-73
2024/01/31 08:50:35;;;;;;;57.03;33.75;;;;;;;-1.43;51.04;95462.56;5028056;28;20045;-73
2024/01/31 08:53:01;;;;;;;57.38;33.40;;;;;;;-1.57;51.96;95455.72;5032962;28;20082;-73
2024/01/31 08:55:26;;;;;;;61.25;32.80;;;;;;;-1.46;51.42;95458.53;5033548;28;20060;-73
2024/01/31 08:57:52;;;;;;;57.38;34.97;;;;;;;-1.50;51.63;95452.09;5034577;28;20063;-73
2024/01/31 09:00:17;;;;;;;53.42;32.67;;;;;;;-1.26;51.66;95450.72;5033836;28;20473;-73
2024/01/31 09:02:43;;;;;;;57.20;35.50;;;;;;;-0.89;50.92;95443.31;5032375;28;20045;-73
2024/01/31 09:05:11;;;;;;;59.80;32.92;;;;;;;-0.90;49.91;95433.88;5032651;28;20037;-72
2024/01/31 09:07:37;;;;;;;51.42;29.63;;;;;;;-0.89;49.70;95438.09;5034223;28;20041;-73
2024/01/31 09:10:04;;;;;;;51.30;31.15;;;;;;;-1.37;50.63;95430.47;5032446;28;20603;-73
2024/01/31 09:12:30;;;;;;;53.88;30.70;;;;;;;-0.90;49.90;95431.25;5036363;28;20059;-73
2024/01/31 09:14:55;;;;;;;49.42;30.83;;;;;;;-0.67;49.41;95431.63;5031992;28;20041;-72
2024/01/31 09:17:21;;;;;;;47.35;28.63;;;;;;;-0.32;49.13;95414.66;5019770;28;20477;-72
2024/01/31 09:19:46;;;;;;;50.13;27.55;;;;;;;-0.21;48.02;95414.03;5021306;28;20033;-73
2024/01/31 09:22:12;;;;;;;52.95;29.13;;;;;;;-0.35;48.31;95414.28;5032937;28;20041;-72
2024/01/31 09:24:38;;;;;;;48.67;29.70;;;;;;;-0.18;47.99;95410.97;5036422;28;20624;-71
2024/01/31 09:27:03;;;;;;;53.08;29.95;;;;;;;-0.28;48.27;95410.63;5011289;28;20025;-73
2024/01/31 09:29:29;;;;;;;54.38;32.58;;;;;;;0.02;47.96;95400.44;5031888;28;21028;-72
2024/01/31 09:31:55;;;;;;;54.35;32.55;;;;;;;0.02;47.81;95378.69;5038077;28;20486;-72
2024/01/31 09:34:20;;;;;;;56.35;34.88;;;;;;;0.19;47.60;95395.53;5031172;28;20040;-73
2024/01/31 09:36:46;;;;;;;55.65;35.95;;;;;;;-0.69;49.59;95402.28;5037168;28;20300;-73
2024/01/31 09:39:12;;;;;;;55.33;34.28;;;;;;;-0.44;49.23;95387.56;5037066;28;20697;-73
2024/01/31 09:41:37;;;;;;;57.25;34.97;;;;;;;-0.25;49.10;95389.28;5038576;28;20132;-73
2024/01/31 09:44:03;;;;;;;54.40;34.13;;;;;;;-0.47;49.01;95385.34;5035391;28;20044;-73
2024/01/31 09:46:30;;;;;;;59.42;34.25;;;;;;;-0.55;49.14;95380.34;5037866;28;20036;-72
2024/01/31 09:48:55;;;;;;;72.03;37.30;;;;;;;-0.53;49.08;95360.81;5033974;28;20611;-72
2024/01/31 09:51:24;;;;;;;54.65;35.00;;;;;;;0.15;48.72;95383.88;5036781;28;20055;-72
2024/01/31 09:53:53;;;;;;;58.30;35.85;;;;;;;-0.31;48.71;95371.00;5038821;28;20044;-72
2024/01/31 09:56:20;;;;;;;56.70;34.80;;;;;;;-0.35;48.88;95378.47;5036398;28;20060;-73
2024/01/31 09:58:47;;;;;;;58.17;35.17;;;;;;;-0.08;48.71;95364.25;5039259;28;20094;-72
2024/01/31 10:01:14;;;;;;;67.57;35.38;;;;;;;0.11;48.01;95359.13;5036524;28;20044;-73
2024/01/31 10:03:40;;;;;;;58.67;33.05;;;;;;;0.12;47.53;95351.06;5039057;28;20041;-73
2024/01/31 10:06:06;;;;;;;61.40;34.80;;;;;;;-0.32;48.35;95341.44;5038035;28;20623;-73
2024/01/31 10:08:31;;;;;;;59.35;34.17;;;;;;;-0.32;47.96;95319.72;5037077;28;20138;-72
2024/01/31 10:10:57;;;;;;;68.05;38.92;;;;;;;-0.38;48.76;95347.50;5037176;28;20475;-72
2024/01/31 10:13:22;;;;;;;59.53;36.08;;;;;;;-0.18;47.73;95342.97;5037664;28;20052;-73
2024/01/31 10:15:47;;;;;;;69.60;37.05;;;;;;;-0.02;47.67;95346.94;5036423;28;20028;-73
2024/01/31 10:18:15;;;;;;;56.33;33.25;;;;;;;0.39;46.97;95341.25;5036434;28;20053;-73
2024/01/31 10:20:40;;;;;;;53.83;34.08;;;;;;;0.65;46.35;95340.22;5034637;28;20049;-73
2024/01/31 10:23:05;;;;;;;72.43;36.40;;;;;;;0.60;46.34;95334.81;5038234;28;20041;-72
2024/01/31 10:25:31;;;;;;;61.28;36.47;;;;;;;0.58;45.87;95316.72;5035427;28;20063;-73
2024/01/31 10:27:56;;;;;;;66.35;32.03;;;;;;;0.97;44.50;95314.78;5035909;28;20037;-73
2024/01/31 10:30:22;;;;;;;50.85;29.77;;;;;;;1.10;44.25;95312.81;5035481;28;20021;-72
2024/01/31 10:32:49;;;;;;;58.00;31.90;;;;;;;1.12;43.74;95294.25;5032625;28;20033;-72
2024/01/31 10:35:15;;;;;;;56.38;31.20;;;;;;;1.52;43.40;95297.25;5036890;28;20045;-72
2024/01/31 10:37:41;;;;;;;56.22;31.50;;;;;;;1.32;43.54;95273.06;5035165;28;20060;-72
2024/01/31 10:40:11;;;;;;;59.20;32.15;;;;;;;0.80;43.55;95280.47;5036561;28;20123;-72
2024/01/31 10:42:38;;;;;;;57.67;31.92;;;;;;;0.90;44.03;95293.88;5036174;28;20021;-72
2024/01/31 10:45:04;;;;;;;55.05;31.25;;;;;;;1.34;43.95;95289.38;5036657;28;20596;-73
2024/01/31 10:47:29;;;;;;;61.10;31.55;;;;;;;1.77;42.94;95284.00;5031160;28;20033;-73
2024/01/31 10:49:55;;;;;;;57.60;31.60;;;;;;;2.02;43.33;95279.44;5037105;28;20094;-72
2024/01/31 10:52:26;;;;;;;51.97;28.92;;;;;;;2.01;42.49;95275.22;5035645;28;20521;-72
2024/01/31 10:54:55;;;;;;;51.88;29.55;;;;;;;1.81;42.07;95269.44;5035750;28;20065;-72
2024/01/31 10:57:21;;;;;;;48.00;28.92;;;;;;;2.09;41.74;95267.03;5035252;28;20024;-72
2024/01/31 10:59:49;;;;;;;45.85;29.73;;;;;;;2.34;41.47;95265.03;5033558;28;20072;-72
2024/01/31 11:02:15;;;;;;;50.72;30.85;;;;;;;2.48;41.20;95262.97;5034466;28;20048;-72
2024/01/31 11:04:41;;;;;;;55.20;30.38;;;;;;;2.48;39.92;95255.91;5035348;28;20040;-72
2024/01/31 11:07:15;;;;;;;48.28;27.67;;;;;;;2.47;40.17;95253.50;5033120;28;20163;-72
2024/01/31 11:09:41;;;;;;;49.85;30.23;;;;;;;2.68;40.10;95237.19;5035518;28;20040;-72
2024/01/31 11:12:13;;;;;;;53.92;32.22;;;;;;;3.00;39.86;95242.06;5034943;28;20033;-73
2024/01/31 11:14:40;;;;;;;57.35;30.63;;;;;;;3.09;39.39;95230.97;5034162;28;20574;-72